Time;durP1;ratioP1;P1;durP2;ratioP2;P2;SDS_P1;SDS_P2;PMS_P1;PMS_P2;Temp;Humidity;BMP_temperature;BMP_pressure;BME280_temperature;BME280_humidity;BME280_pressure;Samples;Min_cycle;Max_cycle;Signal;HPM_P1;HPM_P2
2022/04/28 00:01:20;;;;;;;10.45;2.97;;;;;;;13.63;43.25;102784.94;5124159;27;20112;-64
2022/04/28 00:03:47;;;;;;;12.43;3.75;;;;;;;13.61;43.00;102791.56;5131191;27;20071;-64
2022/04/28 00:06:16;;;;;;;9.10;3.63;;;;;;;13.45;43.03;102768.34;5132520;27;20070;-64
2022/04/28 00:08:44;;;;;;;11.10;3.55;;;;;;;13.58;43.26;102790.09;5120447;27;20044;-64
2022/04/28 00:11:12;;;;;;;5.25;2.63;;;;;;;13.56;43.15;102788.59;5146599;27;20058;-64
2022/04/28 00:13:40;;;;;;;9.13;2.83;;;;;;;13.50;43.11;102783.97;5116339;27;20075;-63
2022/04/28 00:16:08;;;;;;;7.38;3.00;;;;;;;13.50;43.62;102790.22;5117702;27;20051;-64
2022/04/28 00:18:36;;;;;;;10.90;3.30;;;;;;;13.49;43.24;102785.00;5124823;27;20054;-64
2022/04/28 00:21:03;;;;;;;8.40;3.08;;;;;;;13.48;43.17;102783.34;5126181;27;20111;-64
2022/04/28 00:23:32;;;;;;;8.90;3.85;;;;;;;13.47;43.17;102789.75;5126040;27;20047;-64
2022/04/28 00:26:00;;;;;;;10.77;3.08;;;;;;;13.45;43.51;102789.13;5123358;27;20107;-64
2022/04/28 00:28:28;;;;;;;8.10;2.83;;;;;;;13.42;43.32;102793.03;5120002;27;20075;-64
2022/04/28 00:30:55;;;;;;;12.52;3.50;;;;;;;13.41;43.31;102790.53;5125001;27;20074;-64
2022/04/28 00:33:23;;;;;;;7.07;2.70;;;;;;;13.38;43.55;102785.53;5121450;27;20081;-64
2022/04/28 00:35:51;;;;;;;9.43;3.05;;;;;;;13.38;43.49;102790.94;5136619;27;20063;-64
2022/04/28 00:38:19;;;;;;;7.43;3.03;;;;;;;13.36;43.45;102777.63;5121112;27;20075;-63
2022/04/28 00:40:48;;;;;;;9.07;3.28;;;;;;;13.33;43.26;102783.41;5125827;27;20065;-63
2022/04/28 00:43:26;;;;;;;8.85;2.65;;;;;;;13.31;43.42;102785.47;5121006;28;20073;-63
2022/04/28 00:45:54;;;;;;;7.68;2.60;;;;;;;13.29;43.46;102790.22;5123139;28;20048;-63
2022/04/28 00:51:16;;;;;;;9.98;3.33;;;;;;;13.26;43.45;102777.94;5065117;28;20079;-63
2022/04/28 00:53:47;;;;;;;9.48;3.08;;;;;;;13.25;43.78;102786.22;5050541;28;20056;-63
2022/04/28 00:56:16;;;;;;;11.25;2.88;;;;;;;13.23;43.44;102780.19;5067558;28;20159;-63
2022/04/28 00:58:44;;;;;;;10.27;4.07;;;;;;;13.11;43.69;102758.22;5059438;28;20458;-63
2022/04/28 01:01:12;;;;;;;6.82;3.20;;;;;;;13.19;43.60;102779.72;5060552;28;20049;-63
2022/04/28 01:03:40;;;;;;;9.88;3.50;;;;;;;13.18;43.67;102780.75;5065197;28;20076;-64
2022/04/28 01:06:08;;;;;;;10.05;3.33;;;;;;;13.17;43.93;102779.09;5071518;28;20049;-64
2022/04/28 01:08:36;;;;;;;13.18;3.30;;;;;;;13.16;43.49;102784.66;5067222;28;20499;-64
2022/04/28 01:11:04;;;;;;;5.15;2.92;;;;;;;13.13;43.72;102785.03;5063038;28;20513;-64
2022/04/28 01:13:33;;;;;;;10.82;3.63;;;;;;;13.11;43.90;102782.53;5072553;28;20103;-63
2022/04/28 01:16:01;;;;;;;7.70;3.30;;;;;;;13.09;43.83;102784.56;5058887;28;20076;-63
2022/04/28 01:18:29;;;;;;;7.15;3.35;;;;;;;13.06;43.55;102784.94;5067398;28;20072;-63
2022/04/28 01:21:02;;;;;;;8.07;2.85;;;;;;;13.06;43.67;102784.13;5060738;28;20052;-63
2022/04/28 01:23:31;;;;;;;8.23;3.10;;;;;;;13.06;43.84;102786.81;5062288;28;20178;-63
2022/04/28 01:25:59;;;;;;;12.80;3.22;;;;;;;13.04;43.93;102785.16;5054456;28;20083;-64
2022/04/28 01:28:27;;;;;;;11.45;3.45;;;;;;;13.03;43.86;102786.16;5127866;27;20051;-64
2022/04/28 01:30:55;;;;;;;11.05;3.60;;;;;;;13.01;44.09;102787.38;5118871;27;20100;-64
2022/04/28 01:33:23;;;;;;;7.15;2.85;;;;;;;12.99;44.04;102784.88;5117440;28;20094;-64
2022/04/28 01:35:51;;;;;;;12.32;3.28;;;;;;;12.87;44.05;102759.41;5116606;28;20072;-64
2022/04/28 01:38:20;;;;;;;11.68;3.67;;;;;;;12.96;43.74;102779.88;5116926;27;20047;-64
2022/04/28 01:40:48;;;;;;;8.95;4.03;;;;;;;12.90;43.96;102774.38;5124220;27;20232;-64
2022/04/28 01:43:15;;;;;;;9.77;3.78;;;;;;;12.93;44.08;102782.09;5126418;27;20078;-64
2022/04/28 01:45:43;;;;;;;12.80;3.40;;;;;;;12.90;43.90;102779.78;5124565;27;20103;-64
2022/04/28 01:48:11;;;;;;;12.43;3.35;;;;;;;12.88;44.22;102784.53;5130864;27;20111;-64
2022/04/28 01:50:39;;;;;;;11.40;3.25;;;;;;;12.86;44.14;102782.03;5116843;28;20078;-64
2022/04/28 01:55:53;;;;;;;9.65;3.40;;;;;;;12.81;44.18;102781.75;5124815;27;20498;-64
2022/04/28 01:58:21;;;;;;;11.75;4.15;;;;;;;12.80;44.14;102790.03;5120877;27;20078;-64
2022/04/28 02:00:50;;;;;;;9.27;4.07;;;;;;;12.79;44.29;102783.81;5119217;27;20119;-64
2022/04/28 02:03:18;;;;;;;7.65;3.35;;;;;;;12.78;44.44;102787.53;5126213;27;20078;-64
2022/04/28 02:05:46;;;;;;;8.50;3.90;;;;;;;12.78;44.35;102789.41;5119440;27;20066;-64
2022/04/28 02:08:14;;;;;;;8.70;3.63;;;;;;;12.76;44.42;102789.59;5121631;27;20067;-64
2022/04/28 02:10:41;;;;;;;8.52;3.30;;;;;;;12.72;44.12;102785.59;5125128;27;20075;-64
2022/04/28 02:13:11;;;;;;;11.68;3.70;;;;;;;12.70;44.36;102791.19;5121940;28;20075;-64
2022/04/28 02:15:38;;;;;;;12.40;4.05;;;;;;;12.69;44.52;102786.81;5114061;27;20055;-64
2022/04/28 02:18:06;;;;;;;8.00;3.63;;;;;;;12.68;44.51;102790.53;5127167;27;20075;-64
2022/04/28 02:20:34;;;;;;;11.90;4.13;;;;;;;12.65;44.62;102787.38;5118936;28;20067;-64
2022/04/28 02:23:02;;;;;;;8.88;3.50;;;;;;;12.63;44.49;102784.84;5130508;27;20126;-64
2022/04/28 02:25:30;;;;;;;10.75;3.78;;;;;;;12.62;44.61;102787.75;5121238;27;20050;-64
2022/04/28 02:27:58;;;;;;;7.78;3.65;;;;;;;12.61;44.54;102784.22;5112167;27;20123;-64
2022/04/28 02:30:27;;;;;;;7.68;3.60;;;;;;;12.60;44.35;102789.78;5124471;27;20058;-64
2022/04/28 02:33:09;;;;;;;8.73;3.50;;;;;;;12.58;44.51;102792.69;5130099;27;20079;-64
2022/04/28 02:35:37;;;;;;;9.45;3.95;;;;;;;12.55;44.77;102784.13;5119863;27;20091;-64
2022/04/28 02:38:06;;;;;;;10.70;4.18;;;;;;;12.53;44.66;102786.16;5116047;27;20051;-64
2022/04/28 02:40:34;;;;;;;10.13;3.53;;;;;;;12.53;44.60;102791.56;5122115;28;20130;-64
2022/04/28 02:43:02;;;;;;;12.80;4.45;;;;;;;12.51;44.63;102789.06;5126477;27;20078;-64
2022/04/28 02:45:31;;;;;;;10.13;4.45;;;;;;;12.51;44.68;102789.06;5114630;28;20079;-63
2022/04/28 02:47:59;;;;;;;12.02;3.97;;;;;;;12.52;44.60;102784.50;5126610;27;20039;-64
2022/04/28 02:50:27;;;;;;;7.93;3.70;;;;;;;12.51;44.77;102782.81;5119726;28;20131;-64
2022/04/28 02:52:54;;;;;;;9.30;3.67;;;;;;;12.51;44.74;102786.34;5124507;27;20078;-64
2022/04/28 02:55:22;;;;;;;12.27;4.32;;;;;;;12.50;44.63;102783.84;5124762;28;20082;-63
2022/04/28 02:57:50;;;;;;;14.23;3.85;;;;;;;12.48;44.69;102780.50;5136478;28;20051;-64
2022/04/28 03:00:18;;;;;;;9.07;3.83;;;;;;;12.49;44.38;102782.16;5117274;28;20090;-64
2022/04/28 03:02:47;;;;;;;8.98;3.90;;;;;;;12.45;44.73;102779.00;5132602;28;20050;-64
2022/04/28 03:05:15;;;;;;;10.45;3.53;;;;;;;12.43;44.99;102778.38;5133559;28;20134;-64
2022/04/28 03:10:51;;;;;;;7.97;3.25;;;;;;;12.39;44.88;102785.16;5126711;28;20133;-64
2022/04/28 03:13:21;;;;;;;;;;;;;;;12.38;44.95;102781.63;5132224;28;20089;-64
2022/04/28 03:15:50;;;;;;;12.65;3.90;;;;;;;12.31;45.16;102782.56;5117818;28;19978;-64
2022/04/28 03:18:19;;;;;;;8.68;3.60;;;;;;;12.33;44.92;102783.19;5125028;28;20054;-64
2022/04/28 03:20:47;;;;;;;8.18;3.75;;;;;;;12.34;45.19;102784.88;5121401;28;20365;-64
2022/04/28 03:23:14;;;;;;;9.25;4.72;;;;;;;12.32;45.16;102786.91;5138769;28;20079;-64
2022/04/28 03:25:42;;;;;;;10.15;3.90;;;;;;;12.29;45.24;102788.13;5131607;27;20075;-64
2022/04/28 03:28:10;;;;;;;9.98;4.05;;;;;;;12.29;45.27;102787.28;5127554;27;20238;-64
2022/04/28 03:30:38;;;;;;;11.80;5.32;;;;;;;12.27;45.21;102789.34;5112587;28;20072;-64
2022/04/28 03:33:06;;;;;;;11.27;4.10;;;;;;;12.25;45.20;102791.38;5125943;28;20094;-64
2022/04/28 03:35:35;;;;;;;11.15;4.10;;;;;;;12.25;45.38;102789.53;5132192;27;20091;-64
2022/04/28 03:38:03;;;;;;;12.00;4.63;;;;;;;12.23;45.17;102791.56;5128809;27;20431;-64
2022/04/28 03:40:30;;;;;;;8.40;3.85;;;;;;;12.23;45.30;102790.72;5127663;27;20058;-64
2022/04/28 03:42:58;;;;;;;10.60;4.18;;;;;;;12.22;45.30;102792.59;5129316;27;20165;-64
2022/04/28 03:45:26;;;;;;;11.57;3.70;;;;;;;12.17;45.29;102791.47;5130072;27;20477;-64
2022/04/28 03:47:55;;;;;;;10.15;5.30;;;;;;;12.16;45.59;102787.09;5126603;27;20385;-64
2022/04/28 03:50:23;;;;;;;9.50;4.07;;;;;;;12.13;45.54;102795.59;5133618;27;20048;-64
2022/04/28 03:52:52;;;;;;;7.47;4.18;;;;;;;12.13;45.49;102792.88;5125158;28;20107;-64
2022/04/28 03:55:20;;;;;;;10.30;5.50;;;;;;;12.12;45.52;102794.75;5128545;27;20074;-64
2022/04/28 03:57:47;;;;;;;10.38;4.45;;;;;;;12.10;45.58;102794.09;5125050;28;20071;-65
2022/04/28 04:00:16;;;;;;;11.27;4.50;;;;;;;12.10;45.56;102798.66;5125613;28;20148;-64
2022/04/28 04:02:44;;;;;;;14.35;3.88;;;;;;;11.96;45.54;102778.75;5129548;27;20054;-64
2022/04/28 04:05:12;;;;;;;15.73;5.68;;;;;;;12.08;45.53;102800.69;5123705;28;20194;-63
2022/04/28 04:07:42;;;;;;;10.15;4.32;;;;;;;12.07;45.57;102809.78;5136732;27;20058;-63
2022/04/28 04:10:13;;;;;;;9.90;5.30;;;;;;;12.04;45.83;102809.13;5121466;28;20047;-63
2022/04/28 04:12:41;;;;;;;12.88;4.82;;;;;;;12.02;45.71;102804.97;5113521;28;20055;-64
2022/04/28 04:15:10;;;;;;;8.63;4.15;;;;;;;12.03;45.68;102809.31;5121311;28;20091;-63
2022/04/28 04:17:42;;;;;;;8.70;4.85;;;;;;;12.01;45.78;102804.13;5125719;27;20070;-64
2022/04/28 04:20:10;;;;;;;16.83;5.00;;;;;;;11.89;45.67;102796.66;5134490;27;20077;-64
2022/04/28 04:22:38;;;;;;;11.23;4.07;;;;;;;12.01;45.83;102811.38;5132506;27;20103;-63
2022/04/28 04:25:07;;;;;;;15.27;4.53;;;;;;;12.00;45.76;102815.91;5123960;28;20047;-63
2022/04/28 04:27:36;;;;;;;10.30;4.55;;;;;;;12.00;45.63;102815.91;5127659;27;20083;-64
2022/04/28 04:32:17;;;;;;;8.98;4.72;;;;;;;12.00;45.72;102815.91;5129826;27;20134;-63
2022/04/28 04:32:52;;;;;;;9.30;4.32;;;;;;;11.99;45.68;102816.94;5125666;28;20464;-64
2022/04/28 04:35:21;;;;;;;10.40;3.83;;;;;;;12.00;45.63;102825.84;5124182;27;20091;-64
2022/04/28 04:37:49;;;;;;;6.72;3.90;;;;;;;11.97;45.90;102812.75;5130792;27;20167;-63
2022/04/28 04:40:17;;;;;;;13.73;5.55;;;;;;;11.97;45.77;102818.16;5126796;27;20047;-62
2022/04/28 04:42:46;;;;;;;8.93;4.38;;;;;;;11.96;45.76;102827.25;5131694;27;20154;-62
2022/04/28 04:45:14;;;;;;;14.52;5.72;;;;;;;11.97;45.89;102826.22;5122692;28;20087;-63
2022/04/28 04:47:41;;;;;;;11.55;4.20;;;;;;;11.96;45.63;102829.94;5125878;27;20104;-63
2022/04/28 04:50:10;;;;;;;9.60;4.63;;;;;;;11.90;45.73;102817.19;5127502;27;20055;-63
2022/04/28 04:52:37;;;;;;;10.15;4.80;;;;;;;11.93;45.85;102835.69;5140260;27;20054;-64
2022/04/28 04:55:06;;;;;;;12.02;5.75;;;;;;;11.89;45.76;102829.00;5123086;27;20055;-62
2022/04/28 04:57:36;;;;;;;11.18;4.75;;;;;;;11.89;46.00;102831.69;5128875;27;20053;-62
2022/04/28 05:00:07;;;;;;;9.90;5.50;;;;;;;11.87;45.97;102836.41;5131602;27;20105;-63
2022/04/28 05:02:35;;;;;;;12.55;5.32;;;;;;;11.88;45.90;102835.41;5122659;27;20048;-64
2022/04/28 05:05:03;;;;;;;11.07;5.07;;;;;;;11.84;45.95;102840.31;5127356;27;20047;-64
2022/04/28 05:07:31;;;;;;;10.38;5.53;;;;;;;11.83;45.96;102844.03;5133562;27;20181;-64
2022/04/28 05:09:59;;;;;;;11.80;5.38;;;;;;;11.83;46.11;102843.19;5128922;27;20063;-63
2022/04/28 05:12:30;;;;;;;11.93;5.00;;;;;;;11.80;46.03;102844.38;5129909;27;20048;-63
2022/04/28 05:14:58;;;;;;;11.40;4.93;;;;;;;11.79;46.08;102856.19;5127996;27;20063;-63
2022/04/28 05:17:27;;;;;;;13.77;5.25;;;;;;;11.77;46.20;102855.53;5122370;27;20103;-63
2022/04/28 05:19:56;;;;;;;15.23;5.38;;;;;;;11.76;46.28;102855.69;5111612;27;20196;-63
2022/04/28 05:22:24;;;;;;;14.00;5.07;;;;;;;11.76;46.54;102861.91;5129184;27;20074;-66
2022/04/28 05:24:52;;;;;;;10.60;5.20;;;;;;;11.73;46.08;102860.41;5117317;28;20073;-67
2022/04/28 05:27:19;;;;;;;9.93;5.22;;;;;;;11.72;46.39;102861.41;5119586;28;20107;-66
2022/04/28 05:29:47;;;;;;;12.13;5.05;;;;;;;11.72;46.38;102861.41;5125076;27;20098;-65
2022/04/28 05:32:15;;;;;;;18.63;5.22;;;;;;;11.60;46.45;102849.41;5122260;27;20094;-68
2022/04/28 05:34:44;;;;;;;12.10;5.50;;;;;;;11.72;46.68;102864.13;5128891;27;20537;-69
2022/04/28 05:37:12;;;;;;;12.73;5.15;;;;;;;11.66;46.71;102856.75;5123829;27;20071;-69
2022/04/28 05:39:41;;;;;;;11.82;5.30;;;;;;;11.69;46.73;102875.25;5122559;27;20073;-63
2022/04/28 05:42:09;;;;;;;15.45;5.43;;;;;;;11.71;46.63;102867.00;4758006;27;10000307;-63
2022/04/28 05:47:24;;;;;;;12.55;5.50;;;;;;;11.71;46.57;102870.53;5118955;27;20086;-63
2022/04/28 05:49:54;;;;;;;9.80;5.10;;;;;;;11.73;46.70;102881.13;5120513;27;20063;-62
2022/04/28 05:52:22;;;;;;;14.13;5.00;;;;;;;11.74;46.61;102875.56;5118810;27;20087;-63
2022/04/28 05:54:50;;;;;;;9.88;5.00;;;;;;;11.75;46.28;102884.47;5116962;27;20093;-62
2022/04/28 05:57:18;;;;;;;11.20;5.53;;;;;;;11.74;46.54;102885.50;4759227;27;9999843;-61
2022/04/28 05:59:46;;;;;;;17.05;6.32;;;;;;;11.75;46.72;102884.47;5122756;28;20077;-61
2022/04/28 06:02:14;;;;;;;12.35;5.25;;;;;;;11.76;46.66;102880.75;5114476;27;20079;-61
2022/04/28 06:04:42;;;;;;;12.30;5.10;;;;;;;11.81;46.57;102894.56;5133806;27;20048;-61
2022/04/28 06:07:11;;;;;;;6.97;4.80;;;;;;;11.83;46.42;102889.00;5123067;28;20119;-61
2022/04/28 06:09:39;;;;;;;12.48;5.43;;;;;;;11.84;46.44;102896.91;5123486;28;20062;-61
2022/04/28 06:12:07;;;;;;;12.77;5.72;;;;;;;11.84;46.92;102904.13;5122825;27;20071;-63
2022/04/28 06:14:35;;;;;;;11.45;4.93;;;;;;;11.84;47.34;102902.28;5127946;27;20449;-60
2022/04/28 06:17:04;;;;;;;14.38;5.80;;;;;;;11.85;47.13;102903.13;5122020;28;20385;-62
2022/04/28 06:19:32;;;;;;;15.18;6.15;;;;;;;11.86;47.00;102902.94;5123572;28;20090;-61
2022/04/28 06:22:00;;;;;;;16.42;4.60;;;;;;;11.87;47.12;102910.00;5111423;28;20181;-60
2022/04/28 06:24:29;;;;;;;11.10;4.70;;;;;;;11.89;47.04;102902.56;5127393;27;20043;-61
2022/04/28 06:26:57;;;;;;;9.52;4.90;;;;;;;11.93;47.10;102913.84;5128234;27;20090;-61
2022/04/28 06:29:25;;;;;;;16.38;5.25;;;;;;;11.95;46.96;102917.19;5123146;28;20051;-61
2022/04/28 06:31:53;;;;;;;10.98;5.10;;;;;;;11.97;46.88;102916.00;5110927;28;20056;-61
2022/04/28 06:34:20;;;;;;;10.90;4.82;;;;;;;11.99;46.84;102915.81;5123066;28;20090;-61
2022/04/28 06:36:48;;;;;;;9.15;4.53;;;;;;;12.00;46.79;102918.31;4751873;27;10000089;-61
2022/04/28 06:39:16;;;;;;;13.68;4.65;;;;;;;12.02;47.02;102923.53;5122811;28;20048;-61
2022/04/28 06:41:45;;;;;;;10.48;4.47;;;;;;;11.93;46.83;102903.06;5122693;28;20081;-61
2022/04/28 06:44:13;;;;;;;9.05;3.88;;;;;;;12.05;46.81;102920.47;5115247;28;20059;-61
2022/04/28 06:46:40;;;;;;;9.68;3.97;;;;;;;12.05;46.83;102924.00;5121955;28;20078;-61
2022/04/28 06:49:08;;;;;;;12.80;4.13;;;;;;;12.08;46.99;102924.66;5121927;28;20153;-62
2022/04/28 06:51:36;;;;;;;6.75;4.18;;;;;;;12.09;46.98;102929.88;5123340;28;20082;-61
2022/04/28 06:54:04;;;;;;;10.98;4.38;;;;;;;12.11;47.08;102929.69;5123630;28;20086;-62
2022/04/28 06:56:31;;;;;;;13.02;4.57;;;;;;;12.21;46.93;102939.19;5123975;28;20055;-61
2022/04/28 06:59:00;;;;;;;8.55;3.80;;;;;;;12.21;46.81;102936.47;5121466;28;20040;-59
2022/04/28 07:01:28;;;;;;;14.27;4.95;;;;;;;12.23;46.72;102934.44;5120044;28;20179;-62
2022/04/28 07:04:05;;;;;;;9.75;4.15;;;;;;;12.26;46.69;102933.25;5123044;28;20051;-61
2022/04/28 07:06:33;;;;;;;10.98;4.13;;;;;;;12.29;46.77;102940.97;5121300;28;20484;-61
2022/04/28 07:09:01;;;;;;;9.00;3.78;;;;;;;12.31;46.66;102933.53;5123325;28;20055;-61
2022/04/28 07:11:29;;;;;;;11.73;4.57;;;;;;;12.32;46.62;102940.59;5120832;28;20368;-60
2022/04/28 07:13:56;;;;;;;9.45;4.18;;;;;;;12.33;46.59;102945.81;5119873;28;20114;-60
2022/04/28 07:16:25;;;;;;;9.85;3.78;;;;;;;12.35;46.67;102953.72;5120794;28;20145;-60
2022/04/28 07:18:53;;;;;;;7.75;4.03;;;;;;;12.35;46.56;102953.72;5120828;28;20051;-62
2022/04/28 07:21:21;;;;;;;9.63;4.50;;;;;;;12.37;46.68;102957.91;5120741;28;20516;-62
2022/04/28 07:23:49;;;;;;;11.32;4.35;;;;;;;12.39;46.57;102952.34;5122308;28;20408;-62
2022/04/28 07:26:16;;;;;;;9.90;3.83;;;;;;;12.40;46.49;102951.31;5120979;28;20082;-59
2022/04/28 07:28:44;;;;;;;8.13;4.18;;;;;;;12.43;46.59;102966.28;5121802;28;20078;-60
2022/04/28 07:31:12;;;;;;;8.52;4.10;;;;;;;12.45;46.57;102969.66;5121571;28;20047;-60
2022/04/28 07:33:41;;;;;;;10.60;4.32;;;;;;;12.44;46.70;102970.66;5119528;28;20547;-59
2022/04/28 07:36:09;;;;;;;13.43;4.20;;;;;;;12.42;46.59;102970.00;5120219;28;20086;-61
2022/04/28 07:38:36;;;;;;;9.05;4.03;;;;;;;12.43;46.59;102979.78;5121836;28;20111;-59
2022/04/28 07:41:04;;;;;;;8.63;3.83;;;;;;;12.43;46.76;102979.78;5121214;28;20056;-60
2022/04/28 07:43:32;;;;;;;13.10;5.03;;;;;;;12.43;46.69;102985.16;5122425;28;20274;-60
2022/04/28 07:45:59;;;;;;;11.45;3.97;;;;;;;12.43;46.86;102977.91;5118274;28;20075;-60
2022/04/28 07:48:28;;;;;;;14.90;4.03;;;;;;;12.45;46.59;102988.53;5119329;28;20107;-60
2022/04/28 07:50:57;;;;;;;10.68;4.13;;;;;;;12.47;46.90;102983.78;5121158;28;20066;-60
2022/04/28 07:53:25;;;;;;;10.27;4.00;;;;;;;12.49;46.97;102992.53;5122128;28;20040;-60
2022/04/28 07:56:13;;;;;;;11.75;3.80;;;;;;;12.50;46.82;102983.44;5120830;28;20131;-60
2022/04/28 07:58:42;;;;;;;9.68;3.55;;;;;;;12.52;46.94;102990.31;5121807;28;20054;-61
2022/04/28 08:01:11;;;;;;;10.15;3.72;;;;;;;12.55;47.16;102989.09;5121713;28;20073;-60
2022/04/28 08:03:39;;;;;;;8.30;3.83;;;;;;;12.57;47.28;102990.59;5121820;28;20058;-60
2022/04/28 08:06:11;;;;;;;9.10;3.97;;;;;;;12.57;47.08;102992.47;5121798;28;20157;-60
2022/04/28 08:08:38;;;;;;;12.55;4.18;;;;;;;12.61;47.23;102994.63;5118908;28;20059;-57
2022/04/28 08:11:06;;;;;;;10.00;4.63;;;;;;;12.57;47.03;102993.31;5122853;28;20047;-59
2022/04/28 08:13:35;;;;;;;17.15;4.47;;;;;;;12.62;47.27;102998.16;5125324;27;20082;-59
2022/04/28 08:16:04;;;;;;;11.50;4.00;;;;;;;12.62;47.09;103011.63;5121813;28;20090;-59
2022/04/28 08:18:32;;;;;;;14.00;5.70;;;;;;;12.62;47.13;103008.94;5122310;28;20377;-59
2022/04/28 08:21:01;;;;;;;11.50;4.68;;;;;;;12.65;47.33;103003.19;5122253;28;20079;-59
2022/04/28 08:23:30;;;;;;;11.52;4.60;;;;;;;12.65;47.16;103004.03;5124225;27;20067;-59
2022/04/28 08:25:59;;;;;;;9.13;4.10;;;;;;;12.56;47.29;102988.09;5124959;28;20083;-59
2022/04/28 08:28:27;;;;;;;9.95;5.35;;;;;;;12.68;47.63;103009.06;5122513;28;20051;-59
2022/04/28 08:30:55;;;;;;;10.70;4.72;;;;;;;12.69;47.53;103008.03;5124631;28;20127;-59
2022/04/28 08:33:23;;;;;;;9.18;4.07;;;;;;;12.70;47.37;103009.69;5124660;27;20143;-59
2022/04/28 08:35:51;;;;;;;10.65;4.80;;;;;;;12.73;47.72;103005.81;5126821;27;20097;-60
2022/04/28 08:38:18;;;;;;;7.85;4.50;;;;;;;12.73;47.83;103008.50;5124727;28;20055;-59
2022/04/28 08:40:49;;;;;;;11.75;4.10;;;;;;;12.75;47.63;103017.25;5125112;28;20075;-59
2022/04/28 08:43:17;;;;;;;8.65;4.60;;;;;;;12.75;47.51;103014.56;5122085;28;20521;-59
2022/04/28 08:48:47;;;;;;;13.20;4.68;;;;;;;12.78;47.32;103019.59;5135302;27;20050;-60
2022/04/28 08:51:15;;;;;;;11.30;4.25;;;;;;;12.79;47.52;103023.13;5131717;27;20047;-60
2022/04/28 08:53:47;;;;;;;12.82;5.13;;;;;;;12.80;47.37;103016.69;5134896;27;20054;-60
2022/04/28 08:56:17;;;;;;;13.80;5.53;;;;;;;12.81;47.76;103021.06;5129628;27;20043;-59
2022/04/28 08:58:46;;;;;;;7.32;4.15;;;;;;;12.82;47.25;103023.59;5125125;28;20074;-60
2022/04/28 09:01:15;;;;;;;9.25;4.10;;;;;;;12.84;47.41;103021.53;5125675;28;20052;-60
2022/04/28 09:03:43;;;;;;;17.27;4.97;;;;;;;12.85;47.52;103022.38;5125755;28;20087;-60
2022/04/28 09:06:34;;;;;;;11.02;5.20;;;;;;;12.87;47.57;103013.09;5121140;27;20107;-60
2022/04/28 09:09:04;;;;;;;12.68;4.28;;;;;;;12.90;47.74;103011.88;5124815;28;20044;-61
2022/04/28 09:11:37;;;;;;;8.85;4.63;;;;;;;12.94;47.67;103016.72;5125968;28;20093;-59
2022/04/28 09:14:09;;;;;;;15.60;5.30;;;;;;;12.95;47.84;103018.41;5123613;28;20055;-60
2022/04/28 09:16:40;;;;;;;15.35;4.90;;;;;;;12.96;47.77;103017.38;5125431;27;20459;-60
2022/04/28 09:19:09;;;;;;;11.38;4.63;;;;;;;13.01;47.64;103016.81;5110673;28;20071;-61
2022/04/28 09:21:37;;;;;;;12.25;4.45;;;;;;;13.02;47.85;103015.81;5107252;28;20128;-60
2022/04/28 09:24:05;;;;;;;8.18;4.10;;;;;;;13.04;47.72;103011.06;5118381;28;20090;-60
2022/04/28 09:26:34;;;;;;;12.38;5.38;;;;;;;13.05;47.81;103001.94;5120366;28;20048;-60
2022/04/28 09:29:04;;;;;;;12.55;4.40;;;;;;;13.08;47.94;103009.66;5124669;28;20119;-60
2022/04/28 09:31:35;;;;;;;8.25;4.35;;;;;;;13.12;48.04;103002.88;5124995;27;20120;-60
2022/04/28 09:34:24;;;;;;;11.80;3.92;;;;;;;13.11;47.82;102997.66;5121406;28;20055;-60
2022/04/28 09:36:57;;;;;;;12.55;4.22;;;;;;;13.19;47.98;103003.00;4929746;28;10001333;-59
2022/04/28 09:42:35;;;;;;;16.27;5.78;;;;;;;13.23;48.41;102996.19;5129176;27;20047;-60
2022/04/28 09:45:03;;;;;;;9.57;3.95;;;;;;;13.29;47.91;103004.38;5123295;27;20188;-60
2022/04/28 09:47:32;;;;;;;9.50;4.60;;;;;;;13.30;47.71;103003.38;5108957;28;20060;-61
2022/04/28 09:50:00;;;;;;;10.38;3.83;;;;;;;13.31;47.74;103005.03;5111568;28;20055;-60
2022/04/28 09:52:32;;;;;;;11.45;4.63;;;;;;;13.33;48.15;103003.00;5129886;27;20080;-61
2022/04/28 09:55:03;;;;;;;9.48;4.15;;;;;;;13.34;47.64;102995.72;5113286;27;20054;-60
2022/04/28 09:57:32;;;;;;;12.20;4.60;;;;;;;13.36;47.49;103001.78;5130527;27;20071;-61
2022/04/28 10:00:00;;;;;;;12.63;5.10;;;;;;;13.37;47.24;102991.81;5124427;28;20078;-60
2022/04/28 10:02:29;;;;;;;13.27;5.60;;;;;;;13.37;48.03;102992.66;5124104;27;20052;-60
2022/04/28 10:05:03;;;;;;;8.23;4.55;;;;;;;13.40;47.73;102986.88;5114666;28;20075;-60
2022/04/28 10:07:32;;;;;;;10.70;4.63;;;;;;;13.43;48.01;102985.66;5125044;28;20079;-60
2022/04/28 10:10:01;;;;;;;9.35;4.57;;;;;;;13.45;48.08;102983.59;5115625;28;20062;-59
2022/04/28 10:12:29;;;;;;;13.18;5.85;;;;;;;13.47;47.66;102993.19;5123028;28;20071;-60
2022/04/28 10:15:00;;;;;;;13.98;4.95;;;;;;;13.53;47.78;102989.75;5117895;28;20052;-60
2022/04/28 10:17:32;;;;;;;10.35;4.32;;;;;;;13.55;47.87;102982.28;5121673;28;20039;-61
2022/04/28 10:20:05;;;;;;;11.70;5.40;;;;;;;13.57;47.99;102977.53;5124033;28;20102;-60
2022/04/28 10:22:53;;;;;;;14.57;4.75;;;;;;;13.60;48.09;102977.16;5119939;28;20500;-61
2022/04/28 10:33:50;;;;;;;10.10;4.95;;;;;;;13.74;47.78;102972.72;5118166;28;20055;-59
2022/04/28 10:36:20;;;;;;;11.00;4.38;;;;;;;13.77;47.38;102966.94;5124267;27;20054;-60
2022/04/28 10:39:07;;;;;;;11.15;5.00;;;;;;;13.81;47.60;102970.09;5116107;28;20105;-61
2022/04/28 10:41:36;;;;;;;9.60;5.75;;;;;;;13.85;48.00;102966.81;5120093;28;20105;-60
2022/04/28 10:44:17;;;;;;;8.80;4.35;;;;;;;13.91;47.59;102966.03;5113767;28;20093;-60
2022/04/28 10:46:59;;;;;;;10.77;4.60;;;;;;;13.91;47.45;102965.19;5135046;27;20391;-59
2022/04/28 10:49:27;;;;;;;11.40;5.30;;;;;;;13.99;47.45;102959.66;5119860;28;20050;-59
2022/04/28 10:51:58;;;;;;;17.67;5.32;;;;;;;13.93;48.02;102945.03;5127244;28;20040;-60
2022/04/28 10:54:29;;;;;;;8.13;4.55;;;;;;;14.11;47.55;102959.97;5120423;28;20075;-59
2022/04/28 10:57:01;;;;;;;9.77;4.70;;;;;;;14.13;47.22;102956.06;5130158;28;20051;-60
2022/04/28 10:59:40;;;;;;;8.35;5.22;;;;;;;14.15;47.06;102959.41;5127658;28;20380;-60
2022/04/28 11:02:41;;;;;;;9.90;4.88;;;;;;;14.26;46.94;102960.75;5116593;28;20044;-60
2022/04/28 11:05:38;;;;;;;9.60;4.90;;;;;;;14.36;47.26;102955.84;5118151;28;20051;-60
2022/04/28 11:08:10;;;;;;;12.38;4.88;;;;;;;14.41;47.17;102947.97;5130415;28;20043;-60
2022/04/28 11:11:17;;;;;;;13.32;5.93;;;;;;;14.50;47.51;102946.00;5124582;28;20040;-60
2022/04/28 11:13:51;;;;;;;13.50;4.55;;;;;;;14.57;46.88;102957.69;5116506;28;20040;-59
2022/04/28 11:16:19;;;;;;;18.02;4.82;;;;;;;14.56;46.53;102942.50;5123231;28;20055;-60
2022/04/28 11:18:49;;;;;;;13.75;4.70;;;;;;;14.61;46.89;102948.16;5109503;28;20048;-60
2022/04/28 11:21:17;;;;;;;19.55;5.18;;;;;;;14.63;46.64;102943.38;5121615;28;20533;-60
2022/04/28 11:23:47;;;;;;;14.60;4.55;;;;;;;14.70;47.13;102941.56;5116882;28;20056;-60
2022/04/28 11:26:15;;;;;;;12.80;5.40;;;;;;;14.75;46.16;102936.38;5121905;28;20067;-60
2022/04/28 11:28:43;;;;;;;9.38;4.40;;;;;;;14.83;46.54;102929.97;5117333;28;20043;-60
2022/04/28 11:31:12;;;;;;;7.97;4.80;;;;;;;14.90;46.60;102934.41;5133652;28;20078;-60
2022/04/28 11:33:42;;;;;;;10.05;5.05;;;;;;;14.95;46.00;102937.34;5128662;28;20079;-61
2022/04/28 11:36:21;;;;;;;16.08;4.65;;;;;;;14.97;46.48;102937.97;5121269;28;20116;-60
2022/04/28 11:38:51;;;;;;;10.68;4.13;;;;;;;14.98;45.98;102931.53;5113112;28;20072;-59
2022/04/28 11:41:24;;;;;;;17.45;4.85;;;;;;;14.98;45.59;102930.69;5127942;28;20107;-60
2022/04/28 11:43:52;;;;;;;9.02;4.10;;;;;;;15.03;46.51;102933.63;5120730;28;20047;-59
2022/04/28 11:46:20;;;;;;;10.57;4.90;;;;;;;15.09;45.99;102929.28;5126531;27;20636;-59
2022/04/28 11:48:53;;;;;;;14.38;4.65;;;;;;;15.16;46.17;102922.88;5132719;27;20082;-60
2022/04/28 11:51:33;;;;;;;15.13;4.57;;;;;;;15.23;46.92;102925.59;5127416;27;20048;-60
2022/04/28 11:54:03;;;;;;;9.60;4.18;;;;;;;15.34;46.47;102932.31;5122311;28;20448;-59
2022/04/28 11:56:33;;;;;;;9.25;3.78;;;;;;;15.37;45.91;102927.31;5127305;28;20052;-60